sensor_id;sensor_type;location;lat;lon;timestamp;P1;durP1;ratioP1;P2;durP2;ratioP2
10847;SDS011;5477;48.806;9.154;2023-08-12T00:02:02;5.83;;;4.27;;
10847;SDS011;5477;48.806;9.154;2023-08-12T00:04:30;5.00;;;4.60;;
10847;SDS011;5477;48.806;9.154;2023-08-12T00:06:59;5.27;;;4.70;;
10847;SDS011;5477;48.806;9.154;2023-08-12T00:09:27;5.93;;;4.60;;
10847;SDS011;5477;48.806;9.154;2023-08-12T00:11:55;5.50;;;4.70;;
10847;SDS011;5477;48.806;9.154;2023-08-12T00:14:23;5.17;;;4.40;;
10847;SDS011;5477;48.806;9.154;2023-08-12T00:16:52;6.20;;;4.53;;
10847;SDS011;5477;48.806;9.154;2023-08-12T00:19:20;4.70;;;4.30;;
10847;SDS011;5477;48.806;9.154;2023-08-12T00:21:48;5.73;;;4.37;;
10847;SDS011;5477;48.806;9.154;2023-08-12T00:24:18;4.90;;;4.40;;
10847;SDS011;5477;48.806;9.154;2023-08-12T00:26:46;6.07;;;4.43;;
10847;SDS011;5477;48.806;9.154;2023-08-12T00:29:15;5.40;;;4.43;;
10847;SDS011;5477;48.806;9.154;2023-08-12T00:31:43;8.77;;;5.10;;
10847;SDS011;5477;48.806;9.154;2023-08-12T00:34:13;6.03;;;4.70;;
10847;SDS011;5477;48.806;9.154;2023-08-12T00:36:41;5.00;;;4.37;;
10847;SDS011;5477;48.806;9.154;2023-08-12T00:39:09;6.10;;;4.33;;
10847;SDS011;5477;48.806;9.154;2023-08-12T00:41:37;6.87;;;4.10;;
10847;SDS011;5477;48.806;9.154;2023-08-12T00:44:05;6.27;;;4.57;;
10847;SDS011;5477;48.806;9.154;2023-08-12T00:46:34;5.77;;;4.30;;
10847;SDS011;5477;48.806;9.154;2023-08-12T00:49:04;6.70;;;4.60;;
10847;SDS011;5477;48.806;9.154;2023-08-12T00:51:33;4.87;;;4.37;;
10847;SDS011;5477;48.806;9.154;2023-08-12T00:54:04;6.60;;;4.07;;
10847;SDS011;5477;48.806;9.154;2023-08-12T00:56:35;5.87;;;4.93;;
10847;SDS011;5477;48.806;9.154;2023-08-12T00:59:04;5.90;;;4.00;;
10847;SDS011;5477;48.806;9.154;2023-08-12T01:01:35;5.93;;;4.13;;
10847;SDS011;5477;48.806;9.154;2023-08-12T01:04:04;6.53;;;5.00;;
10847;SDS011;5477;48.806;9.154;2023-08-12T01:06:35;5.50;;;4.50;;
10847;SDS011;5477;48.806;9.154;2023-08-12T01:09:03;5.80;;;4.30;;
10847;SDS011;5477;48.806;9.154;2023-08-12T01:11:34;5.17;;;4.47;;
10847;SDS011;5477;48.806;9.154;2023-08-12T01:14:08;4.83;;;4.30;;
10847;SDS011;5477;48.806;9.154;2023-08-12T01:16:42;8.80;;;4.70;;
10847;SDS011;5477;48.806;9.154;2023-08-12T01:19:17;5.27;;;4.77;;
10847;SDS011;5477;48.806;9.154;2023-08-12T01:21:53;5.37;;;4.03;;
10847;SDS011;5477;48.806;9.154;2023-08-12T01:24:24;6.67;;;4.43;;
10847;SDS011;5477;48.806;9.154;2023-08-12T01:26:52;6.97;;;4.10;;
10847;SDS011;5477;48.806;9.154;2023-08-12T01:29:22;5.53;;;4.20;;
10847;SDS011;5477;48.806;9.154;2023-08-12T01:31:51;5.93;;;4.30;;
10847;SDS011;5477;48.806;9.154;2023-08-12T01:34:24;7.03;;;4.83;;
10847;SDS011;5477;48.806;9.154;2023-08-12T01:37:01;4.97;;;4.47;;
10847;SDS011;5477;48.806;9.154;2023-08-12T01:39:32;5.93;;;4.53;;
10847;SDS011;5477;48.806;9.154;2023-08-12T01:42:03;5.83;;;4.50;;
10847;SDS011;5477;48.806;9.154;2023-08-12T01:44:32;6.63;;;4.30;;
10847;SDS011;5477;48.806;9.154;2023-08-12T01:47:00;6.03;;;4.67;;
10847;SDS011;5477;48.806;9.154;2023-08-12T01:49:29;7.57;;;4.57;;
10847;SDS011;5477;48.806;9.154;2023-08-12T01:51:57;7.27;;;4.90;;
10847;SDS011;5477;48.806;9.154;2023-08-12T01:54:25;5.43;;;4.53;;
10847;SDS011;5477;48.806;9.154;2023-08-12T01:56:54;5.30;;;4.80;;
10847;SDS011;5477;48.806;9.154;2023-08-12T01:59:22;6.20;;;4.43;;
10847;SDS011;5477;48.806;9.154;2023-08-12T02:01:50;7.13;;;4.80;;
10847;SDS011;5477;48.806;9.154;2023-08-12T02:04:18;5.93;;;4.67;;
10847;SDS011;5477;48.806;9.154;2023-08-12T02:06:46;5.70;;;5.00;;
10847;SDS011;5477;48.806;9.154;2023-08-12T02:09:15;5.73;;;4.80;;
10847;SDS011;5477;48.806;9.154;2023-08-12T02:11:43;5.63;;;5.03;;
10847;SDS011;5477;48.806;9.154;2023-08-12T02:14:13;5.83;;;4.40;;
10847;SDS011;5477;48.806;9.154;2023-08-12T02:16:41;4.97;;;4.50;;
10847;SDS011;5477;48.806;9.154;2023-08-12T02:19:09;5.97;;;4.53;;
10847;SDS011;5477;48.806;9.154;2023-08-12T02:21:37;5.87;;;4.90;;
10847;SDS011;5477;48.806;9.154;2023-08-12T02:24:05;5.30;;;4.40;;
10847;SDS011;5477;48.806;9.154;2023-08-12T02:26:37;6.60;;;4.40;;
10847;SDS011;5477;48.806;9.154;2023-08-12T02:29:05;5.27;;;4.40;;
10847;SDS011;5477;48.806;9.154;2023-08-12T02:31:34;6.63;;;4.50;;
10847;SDS011;5477;48.806;9.154;2023-08-12T02:34:02;4.70;;;4.30;;
10847;SDS011;5477;48.806;9.154;2023-08-12T02:36:30;6.03;;;4.23;;
10847;SDS011;5477;48.806;9.154;2023-08-12T02:38:59;6.20;;;4.70;;
10847;SDS011;5477;48.806;9.154;2023-08-12T02:41:29;4.80;;;4.30;;
10847;SDS011;5477;48.806;9.154;2023-08-12T02:43:57;5.13;;;4.60;;
10847;SDS011;5477;48.806;9.154;2023-08-12T02:46:25;7.60;;;4.67;;
10847;SDS011;5477;48.806;9.154;2023-08-12T02:48:54;5.20;;;4.43;;
10847;SDS011;5477;48.806;9.154;2023-08-12T02:51:22;7.33;;;5.13;;
10847;SDS011;5477;48.806;9.154;2023-08-12T02:53:50;4.70;;;4.30;;
10847;SDS011;5477;48.806;9.154;2023-08-12T02:56:18;5.30;;;4.80;;
10847;SDS011;5477;48.806;9.154;2023-08-12T02:58:46;6.40;;;5.20;;
10847;SDS011;5477;48.806;9.154;2023-08-12T03:01:14;5.27;;;4.77;;
10847;SDS011;5477;48.806;9.154;2023-08-12T03:03:43;4.90;;;4.40;;
10847;SDS011;5477;48.806;9.154;2023-08-12T03:06:12;4.87;;;4.43;;
10847;SDS011;5477;48.806;9.154;2023-08-12T03:08:40;4.70;;;4.30;;
10847;SDS011;5477;48.806;9.154;2023-08-12T03:11:08;5.17;;;4.67;;
10847;SDS011;5477;48.806;9.154;2023-08-12T03:13:36;7.23;;;4.67;;
10847;SDS011;5477;48.806;9.154;2023-08-12T03:16:04;5.13;;;4.60;;
10847;SDS011;5477;48.806;9.154;2023-08-12T03:18:39;7.30;;;4.87;;
10847;SDS011;5477;48.806;9.154;2023-08-12T03:21:07;5.60;;;4.77;;
10847;SDS011;5477;48.806;9.154;2023-08-12T03:23:38;5.23;;;4.73;;
10847;SDS011;5477;48.806;9.154;2023-08-12T03:26:08;6.57;;;5.03;;
10847;SDS011;5477;48.806;9.154;2023-08-12T03:28:36;5.83;;;4.90;;
10847;SDS011;5477;48.806;9.154;2023-08-12T03:31:05;8.07;;;5.00;;
10847;SDS011;5477;48.806;9.154;2023-08-12T03:33:34;5.87;;;4.90;;
10847;SDS011;5477;48.806;9.154;2023-08-12T03:36:03;6.37;;;5.73;;
10847;SDS011;5477;48.806;9.154;2023-08-12T03:38:32;5.93;;;5.37;;
10847;SDS011;5477;48.806;9.154;2023-08-12T03:41:03;6.80;;;4.70;;
10847;SDS011;5477;48.806;9.154;2023-08-12T03:43:33;7.10;;;5.70;;
10847;SDS011;5477;48.806;9.154;2023-08-12T03:46:01;6.17;;;5.43;;
10847;SDS011;5477;48.806;9.154;2023-08-12T03:48:30;6.40;;;5.20;;
10847;SDS011;5477;48.806;9.154;2023-08-12T03:50:59;8.77;;;5.50;;
10847;SDS011;5477;48.806;9.154;2023-08-12T03:53:27;6.47;;;5.33;;
10847;SDS011;5477;48.806;9.154;2023-08-12T03:55:55;9.30;;;6.00;;
10847;SDS011;5477;48.806;9.154;2023-08-12T03:58:24;7.07;;;6.13;;
10847;SDS011;5477;48.806;9.154;2023-08-12T04:00:53;7.13;;;6.37;;
10847;SDS011;5477;48.806;9.154;2023-08-12T04:03:21;5.97;;;5.30;;
10847;SDS011;5477;48.806;9.154;2023-08-12T04:05:50;7.90;;;5.30;;
10847;SDS011;5477;48.806;9.154;2023-08-12T04:08:20;6.37;;;5.20;;
10847;SDS011;5477;48.806;9.154;2023-08-12T04:10:49;5.97;;;5.23;;
10847;SDS011;5477;48.806;9.154;2023-08-12T04:13:18;5.87;;;5.27;;
10847;SDS011;5477;48.806;9.154;2023-08-12T04:15:49;6.40;;;5.53;;
10847;SDS011;5477;48.806;9.154;2023-08-12T04:18:19;6.00;;;5.37;;
10847;SDS011;5477;48.806;9.154;2023-08-12T04:20:49;6.37;;;5.63;;
10847;SDS011;5477;48.806;9.154;2023-08-12T04:23:17;5.77;;;5.20;;
10847;SDS011;5477;48.806;9.154;2023-08-12T04:25:46;5.90;;;5.23;;
10847;SDS011;5477;48.806;9.154;2023-08-12T04:28:17;8.13;;;6.13;;
10847;SDS011;5477;48.806;9.154;2023-08-12T04:30:49;7.53;;;5.60;;
10847;SDS011;5477;48.806;9.154;2023-08-12T04:33:20;6.47;;;5.63;;
10847;SDS011;5477;48.806;9.154;2023-08-12T04:35:49;10.43;;;6.07;;
10847;SDS011;5477;48.806;9.154;2023-08-12T04:38:17;5.93;;;5.33;;
10847;SDS011;5477;48.806;9.154;2023-08-12T04:40:48;5.43;;;4.93;;
10847;SDS011;5477;48.806;9.154;2023-08-12T04:43:17;9.27;;;4.80;;
10847;SDS011;5477;48.806;9.154;2023-08-12T04:45:45;7.17;;;4.93;;
10847;SDS011;5477;48.806;9.154;2023-08-12T04:48:16;6.30;;;4.80;;
10847;SDS011;5477;48.806;9.154;2023-08-12T04:50:44;8.33;;;5.10;;
10847;SDS011;5477;48.806;9.154;2023-08-12T04:53:12;6.53;;;4.77;;
10847;SDS011;5477;48.806;9.154;2023-08-12T04:55:40;10.13;;;5.20;;
10847;SDS011;5477;48.806;9.154;2023-08-12T04:58:12;6.43;;;5.10;;
10847;SDS011;5477;48.806;9.154;2023-08-12T05:00:41;6.17;;;5.07;;
10847;SDS011;5477;48.806;9.154;2023-08-12T05:03:09;6.63;;;5.17;;
10847;SDS011;5477;48.806;9.154;2023-08-12T05:05:39;6.50;;;5.17;;
10847;SDS011;5477;48.806;9.154;2023-08-12T05:08:07;6.93;;;5.00;;
10847;SDS011;5477;48.806;9.154;2023-08-12T05:10:36;7.60;;;5.43;;
10847;SDS011;5477;48.806;9.154;2023-08-12T05:13:04;5.80;;;5.20;;
10847;SDS011;5477;48.806;9.154;2023-08-12T05:15:32;6.80;;;5.20;;
10847;SDS011;5477;48.806;9.154;2023-08-12T05:18:03;5.73;;;5.10;;
10847;SDS011;5477;48.806;9.154;2023-08-12T05:20:32;7.07;;;5.53;;
10847;SDS011;5477;48.806;9.154;2023-08-12T05:23:02;5.50;;;5.00;;
10847;SDS011;5477;48.806;9.154;2023-08-12T05:25:30;8.03;;;5.13;;
10847;SDS011;5477;48.806;9.154;2023-08-12T05:27:58;5.50;;;4.97;;
10847;SDS011;5477;48.806;9.154;2023-08-12T05:30:25;8.13;;;4.90;;
10847;SDS011;5477;48.806;9.154;2023-08-12T05:32:53;6.33;;;5.20;;
10847;SDS011;5477;48.806;9.154;2023-08-12T05:35:22;8.80;;;5.33;;
10847;SDS011;5477;48.806;9.154;2023-08-12T05:37:50;7.03;;;5.07;;
10847;SDS011;5477;48.806;9.154;2023-08-12T05:40:19;7.17;;;5.50;;
10847;SDS011;5477;48.806;9.154;2023-08-12T05:42:47;8.93;;;5.80;;
10847;SDS011;5477;48.806;9.154;2023-08-12T05:45:15;6.67;;;5.50;;
10847;SDS011;5477;48.806;9.154;2023-08-12T05:47:43;6.40;;;5.30;;
10847;SDS011;5477;48.806;9.154;2023-08-12T05:50:11;6.50;;;4.77;;
10847;SDS011;5477;48.806;9.154;2023-08-12T05:52:40;6.27;;;5.10;;
10847;SDS011;5477;48.806;9.154;2023-08-12T05:55:08;5.77;;;5.23;;
10847;SDS011;5477;48.806;9.154;2023-08-12T05:57:37;5.97;;;4.80;;
10847;SDS011;5477;48.806;9.154;2023-08-12T06:00:06;7.30;;;4.70;;
10847;SDS011;5477;48.806;9.154;2023-08-12T06:02:38;6.00;;;5.40;;
10847;SDS011;5477;48.806;9.154;2023-08-12T06:05:06;6.70;;;5.70;;
10847;SDS011;5477;48.806;9.154;2023-08-12T06:07:35;8.17;;;5.80;;
10847;SDS011;5477;48.806;9.154;2023-08-12T06:10:03;10.77;;;8.40;;
10847;SDS011;5477;48.806;9.154;2023-08-12T06:12:32;7.27;;;5.80;;
10847;SDS011;5477;48.806;9.154;2023-08-12T06:15:01;6.40;;;5.63;;
10847;SDS011;5477;48.806;9.154;2023-08-12T06:17:30;5.83;;;5.33;;
10847;SDS011;5477;48.806;9.154;2023-08-12T06:19:59;7.30;;;5.63;;
10847;SDS011;5477;48.806;9.154;2023-08-12T06:22:26;7.73;;;5.90;;
10847;SDS011;5477;48.806;9.154;2023-08-12T06:24:54;5.83;;;5.30;;
10847;SDS011;5477;48.806;9.154;2023-08-12T06:27:22;6.67;;;5.20;;
10847;SDS011;5477;48.806;9.154;2023-08-12T06:29:50;5.80;;;5.30;;
10847;SDS011;5477;48.806;9.154;2023-08-12T06:32:20;7.33;;;5.57;;
10847;SDS011;5477;48.806;9.154;2023-08-12T06:34:48;9.27;;;5.17;;
10847;SDS011;5477;48.806;9.154;2023-08-12T06:37:16;5.97;;;5.17;;
10847;SDS011;5477;48.806;9.154;2023-08-12T06:39:44;9.30;;;5.30;;
10847;SDS011;5477;48.806;9.154;2023-08-12T06:42:12;6.00;;;4.67;;
10847;SDS011;5477;48.806;9.154;2023-08-12T06:44:40;6.10;;;5.50;;
10847;SDS011;5477;48.806;9.154;2023-08-12T06:47:08;5.47;;;4.97;;
10847;SDS011;5477;48.806;9.154;2023-08-12T06:49:37;5.80;;;5.20;;
10847;SDS011;5477;48.806;9.154;2023-08-12T06:52:05;6.10;;;5.50;;
10847;SDS011;5477;48.806;9.154;2023-08-12T06:54:33;6.33;;;5.40;;
10847;SDS011;5477;48.806;9.154;2023-08-12T06:57:01;5.80;;;5.30;;
10847;SDS011;5477;48.806;9.154;2023-08-12T06:59:29;5.90;;;5.30;;
10847;SDS011;5477;48.806;9.154;2023-08-12T07:01:57;5.70;;;5.20;;
10847;SDS011;5477;48.806;9.154;2023-08-12T07:04:25;6.33;;;5.63;;
10847;SDS011;5477;48.806;9.154;2023-08-12T07:06:54;6.43;;;5.20;;
10847;SDS011;5477;48.806;9.154;2023-08-12T07:09:22;6.87;;;5.13;;
10847;SDS011;5477;48.806;9.154;2023-08-12T07:11:50;6.50;;;4.80;;
10847;SDS011;5477;48.806;9.154;2023-08-12T07:14:18;5.90;;;4.77;;
10847;SDS011;5477;48.806;9.154;2023-08-12T07:16:46;6.50;;;5.47;;
10847;SDS011;5477;48.806;9.154;2023-08-12T07:19:14;9.63;;;5.63;;
10847;SDS011;5477;48.806;9.154;2023-08-12T07:21:42;6.17;;;4.97;;
10847;SDS011;5477;48.806;9.154;2023-08-12T07:24:12;6.03;;;5.30;;
10847;SDS011;5477;48.806;9.154;2023-08-12T07:26:40;7.63;;;6.83;;
10847;SDS011;5477;48.806;9.154;2023-08-12T07:29:08;5.90;;;5.30;;
10847;SDS011;5477;48.806;9.154;2023-08-12T07:31:36;6.80;;;5.13;;
10847;SDS011;5477;48.806;9.154;2023-08-12T07:34:04;5.53;;;5.03;;
10847;SDS011;5477;48.806;9.154;2023-08-12T07:36:32;6.13;;;4.97;;
10847;SDS011;5477;48.806;9.154;2023-08-12T07:39:00;5.53;;;5.00;;
10847;SDS011;5477;48.806;9.154;2023-08-12T07:41:30;5.63;;;4.57;;
10847;SDS011;5477;48.806;9.154;2023-08-12T07:43:58;5.83;;;4.73;;
10847;SDS011;5477;48.806;9.154;2023-08-12T07:46:27;5.00;;;4.50;;
10847;SDS011;5477;48.806;9.154;2023-08-12T07:48:55;6.17;;;4.97;;
10847;SDS011;5477;48.806;9.154;2023-08-12T07:51:23;7.60;;;4.70;;
10847;SDS011;5477;48.806;9.154;2023-08-12T07:53:51;5.47;;;4.30;;
10847;SDS011;5477;48.806;9.154;2023-08-12T07:56:19;5.38;;;4.38;;
10847;SDS011;5477;48.806;9.154;2023-08-12T07:58:48;5.13;;;4.63;;
10847;SDS011;5477;48.806;9.154;2023-08-12T08:01:16;6.87;;;4.60;;
10847;SDS011;5477;48.806;9.154;2023-08-12T08:03:44;5.50;;;4.80;;
10847;SDS011;5477;48.806;9.154;2023-08-12T08:06:12;6.10;;;4.50;;
10847;SDS011;5477;48.806;9.154;2023-08-12T08:08:40;5.18;;;4.65;;
10847;SDS011;5477;48.806;9.154;2023-08-12T08:11:08;4.95;;;4.50;;
10847;SDS011;5477;48.806;9.154;2023-08-12T08:13:36;4.80;;;4.05;;
10847;SDS011;5477;48.806;9.154;2023-08-12T08:16:06;4.85;;;4.13;;
10847;SDS011;5477;48.806;9.154;2023-08-12T08:18:34;6.32;;;4.40;;
10847;SDS011;5477;48.806;9.154;2023-08-12T08:21:02;4.78;;;4.25;;
10847;SDS011;5477;48.806;9.154;2023-08-12T08:23:31;8.27;;;4.00;;
10847;SDS011;5477;48.806;9.154;2023-08-12T08:25:59;5.00;;;4.40;;
10847;SDS011;5477;48.806;9.154;2023-08-12T08:28:27;5.50;;;4.32;;
10847;SDS011;5477;48.806;9.154;2023-08-12T08:30:55;6.68;;;3.80;;
10847;SDS011;5477;48.806;9.154;2023-08-12T08:33:25;5.72;;;4.57;;
10847;SDS011;5477;48.806;9.154;2023-08-12T08:35:53;7.57;;;4.40;;
10847;SDS011;5477;48.806;9.154;2023-08-12T08:38:21;8.75;;;4.43;;
10847;SDS011;5477;48.806;9.154;2023-08-12T08:40:49;5.25;;;4.75;;
10847;SDS011;5477;48.806;9.154;2023-08-12T08:43:19;5.50;;;4.70;;
10847;SDS011;5477;48.806;9.154;2023-08-12T08:45:49;5.95;;;4.80;;
10847;SDS011;5477;48.806;9.154;2023-08-12T08:48:20;6.60;;;5.03;;
10847;SDS011;5477;48.806;9.154;2023-08-12T08:50:49;7.00;;;5.10;;
10847;SDS011;5477;48.806;9.154;2023-08-12T08:53:18;4.95;;;4.50;;
10847;SDS011;5477;48.806;9.154;2023-08-12T08:55:47;5.93;;;4.78;;
10847;SDS011;5477;48.806;9.154;2023-08-12T08:58:16;4.53;;;4.13;;
10847;SDS011;5477;48.806;9.154;2023-08-12T09:00:48;10.07;;;5.45;;
10847;SDS011;5477;48.806;9.154;2023-08-12T09:03:17;8.77;;;5.40;;
10847;SDS011;5477;48.806;9.154;2023-08-12T09:05:45;5.43;;;4.75;;
10847;SDS011;5477;48.806;9.154;2023-08-12T09:08:15;5.03;;;4.63;;
10847;SDS011;5477;48.806;9.154;2023-08-12T09:10:44;5.63;;;4.40;;
10847;SDS011;5477;48.806;9.154;2023-08-12T09:13:14;4.85;;;4.32;;
10847;SDS011;5477;48.806;9.154;2023-08-12T09:15:44;5.75;;;4.40;;
10847;SDS011;5477;48.806;9.154;2023-08-12T09:18:12;5.32;;;4.53;;
10847;SDS011;5477;48.806;9.154;2023-08-12T09:20:40;9.05;;;4.90;;
10847;SDS011;5477;48.806;9.154;2023-08-12T09:23:09;6.97;;;5.28;;
10847;SDS011;5477;48.806;9.154;2023-08-12T09:25:42;5.40;;;4.90;;
10847;SDS011;5477;48.806;9.154;2023-08-12T09:28:11;5.72;;;4.65;;
10847;SDS011;5477;48.806;9.154;2023-08-12T09:30:49;7.97;;;4.57;;
10847;SDS011;5477;48.806;9.154;2023-08-12T09:33:23;13.43;;;5.57;;
10847;SDS011;5477;48.806;9.154;2023-08-12T09:35:52;8.60;;;4.90;;
10847;SDS011;5477;48.806;9.154;2023-08-12T09:38:23;7.75;;;5.00;;
10847;SDS011;5477;48.806;9.154;2023-08-12T09:40:53;7.72;;;5.13;;
10847;SDS011;5477;48.806;9.154;2023-08-12T09:43:23;6.65;;;4.40;;
10847;SDS011;5477;48.806;9.154;2023-08-12T09:45:55;5.80;;;3.90;;
10847;SDS011;5477;48.806;9.154;2023-08-12T09:48:25;7.38;;;5.13;;
10847;SDS011;5477;48.806;9.154;2023-08-12T09:50:53;5.78;;;4.40;;
10847;SDS011;5477;48.806;9.154;2023-08-12T09:53:22;5.90;;;4.13;;
10847;SDS011;5477;48.806;9.154;2023-08-12T09:55:50;3.90;;;3.35;;
10847;SDS011;5477;48.806;9.154;2023-08-12T09:58:22;3.97;;;3.20;;
10847;SDS011;5477;48.806;9.154;2023-08-12T10:00:51;4.75;;;3.60;;
10847;SDS011;5477;48.806;9.154;2023-08-12T10:03:20;4.60;;;3.83;;
10847;SDS011;5477;48.806;9.154;2023-08-12T10:05:49;7.15;;;3.83;;
10847;SDS011;5477;48.806;9.154;2023-08-12T10:08:19;4.43;;;3.20;;
10847;SDS011;5477;48.806;9.154;2023-08-12T10:10:47;3.72;;;2.70;;
10847;SDS011;5477;48.806;9.154;2023-08-12T10:13:34;5.60;;;2.70;;
10847;SDS011;5477;48.806;9.154;2023-08-12T10:16:02;3.40;;;3.03;;
10847;SDS011;5477;48.806;9.154;2023-08-12T10:18:31;3.67;;;2.75;;
10847;SDS011;5477;48.806;9.154;2023-08-12T10:21:00;4.45;;;3.05;;
10847;SDS011;5477;48.806;9.154;2023-08-12T10:23:29;3.10;;;2.80;;
10847;SDS011;5477;48.806;9.154;2023-08-12T10:25:57;5.28;;;2.78;;
10847;SDS011;5477;48.806;9.154;2023-08-12T10:28:29;3.67;;;2.88;;
10847;SDS011;5477;48.806;9.154;2023-08-12T10:30:59;4.32;;;2.80;;
10847;SDS011;5477;48.806;9.154;2023-08-12T10:33:27;3.20;;;2.63;;
10847;SDS011;5477;48.806;9.154;2023-08-12T10:35:55;3.50;;;2.70;;
10847;SDS011;5477;48.806;9.154;2023-08-12T10:38:23;3.58;;;2.70;;
10847;SDS011;5477;48.806;9.154;2023-08-12T10:40:52;3.63;;;2.50;;
10847;SDS011;5477;48.806;9.154;2023-08-12T10:43:48;4.38;;;2.78;;
10847;SDS011;5477;48.806;9.154;2023-08-12T10:46:22;5.53;;;2.80;;
10847;SDS011;5477;48.806;9.154;2023-08-12T10:49:02;4.43;;;2.90;;
10847;SDS011;5477;48.806;9.154;2023-08-12T10:51:41;4.43;;;3.00;;
10847;SDS011;5477;48.806;9.154;2023-08-12T10:54:14;3.95;;;2.85;;
10847;SDS011;5477;48.806;9.154;2023-08-12T10:59:48;4.00;;;2.67;;
10847;SDS011;5477;48.806;9.154;2023-08-12T11:02:19;3.45;;;2.67;;
10847;SDS011;5477;48.806;9.154;2023-08-12T11:04:50;3.03;;;2.72;;
10847;SDS011;5477;48.806;9.154;2023-08-12T11:07:21;4.13;;;2.70;;
10847;SDS011;5477;48.806;9.154;2023-08-12T11:09:58;3.85;;;2.88;;
10847;SDS011;5477;48.806;9.154;2023-08-12T11:12:29;3.72;;;2.65;;
10847;SDS011;5477;48.806;9.154;2023-08-12T11:14:58;3.90;;;2.60;;
10847;SDS011;5477;48.806;9.154;2023-08-12T11:17:30;4.43;;;2.60;;
10847;SDS011;5477;48.806;9.154;2023-08-12T11:20:00;3.55;;;2.88;;
10847;SDS011;5477;48.806;9.154;2023-08-12T11:22:31;3.88;;;2.60;;
10847;SDS011;5477;48.806;9.154;2023-08-12T11:25:03;3.42;;;3.03;;
10847;SDS011;5477;48.806;9.154;2023-08-12T11:27:42;3.47;;;2.92;;
10847;SDS011;5477;48.806;9.154;2023-08-12T11:30:12;5.55;;;2.50;;
10847;SDS011;5477;48.806;9.154;2023-08-12T11:32:43;3.97;;;2.45;;
10847;SDS011;5477;48.806;9.154;2023-08-12T11:35:13;3.25;;;2.53;;
10847;SDS011;5477;48.806;9.154;2023-08-12T11:37:42;2.78;;;2.58;;
10847;SDS011;5477;48.806;9.154;2023-08-12T11:40:12;3.42;;;2.50;;
10847;SDS011;5477;48.806;9.154;2023-08-12T11:42:42;3.13;;;2.50;;
10847;SDS011;5477;48.806;9.154;2023-08-12T11:45:11;3.80;;;3.00;;
10847;SDS011;5477;48.806;9.154;2023-08-12T11:47:40;3.53;;;2.65;;
10847;SDS011;5477;48.806;9.154;2023-08-12T11:50:11;4.18;;;2.70;;
10847;SDS011;5477;48.806;9.154;2023-08-12T11:52:40;5.20;;;2.67;;
10847;SDS011;5477;48.806;9.154;2023-08-12T11:55:08;2.95;;;2.60;;
10847;SDS011;5477;48.806;9.154;2023-08-12T11:57:37;3.03;;;2.80;;
10847;SDS011;5477;48.806;9.154;2023-08-12T12:00:08;6.45;;;3.45;;
10847;SDS011;5477;48.806;9.154;2023-08-12T12:02:48;4.20;;;3.60;;
10847;SDS011;5477;48.806;9.154;2023-08-12T12:05:18;4.75;;;3.40;;
10847;SDS011;5477;48.806;9.154;2023-08-12T12:07:50;5.22;;;3.33;;
10847;SDS011;5477;48.806;9.154;2023-08-12T12:10:20;3.25;;;2.88;;
10847;SDS011;5477;48.806;9.154;2023-08-12T12:12:49;2.95;;;2.60;;
10847;SDS011;5477;48.806;9.154;2023-08-12T12:15:17;4.05;;;2.90;;
10847;SDS011;5477;48.806;9.154;2023-08-12T12:17:47;4.95;;;3.30;;
10847;SDS011;5477;48.806;9.154;2023-08-12T12:20:16;4.40;;;3.00;;
10847;SDS011;5477;48.806;9.154;2023-08-12T12:22:45;4.20;;;2.70;;
10847;SDS011;5477;48.806;9.154;2023-08-12T12:25:15;4.47;;;2.80;;
10847;SDS011;5477;48.806;9.154;2023-08-12T12:27:45;2.75;;;2.45;;
10847;SDS011;5477;48.806;9.154;2023-08-12T12:30:15;4.68;;;3.10;;
10847;SDS011;5477;48.806;9.154;2023-08-12T12:32:46;10.00;;;4.47;;
10847;SDS011;5477;48.806;9.154;2023-08-12T12:35:15;6.30;;;4.33;;
10847;SDS011;5477;48.806;9.154;2023-08-12T12:37:43;5.20;;;3.60;;
10847;SDS011;5477;48.806;9.154;2023-08-12T12:40:11;7.33;;;4.17;;
10847;SDS011;5477;48.806;9.154;2023-08-12T12:42:39;5.93;;;4.03;;
10847;SDS011;5477;48.806;9.154;2023-08-12T12:45:07;5.00;;;3.87;;
10847;SDS011;5477;48.806;9.154;2023-08-12T12:47:36;8.83;;;4.03;;
10847;SDS011;5477;48.806;9.154;2023-08-12T12:50:07;7.60;;;4.17;;
10847;SDS011;5477;48.806;9.154;2023-08-12T12:52:35;4.83;;;3.60;;
10847;SDS011;5477;48.806;9.154;2023-08-12T12:55:03;6.07;;;3.80;;
10847;SDS011;5477;48.806;9.154;2023-08-12T12:57:31;5.07;;;3.60;;
10847;SDS011;5477;48.806;9.154;2023-08-12T12:59:59;5.07;;;3.40;;
10847;SDS011;5477;48.806;9.154;2023-08-12T13:02:27;5.30;;;3.87;;
10847;SDS011;5477;48.806;9.154;2023-08-12T13:04:55;6.60;;;3.70;;
10847;SDS011;5477;48.806;9.154;2023-08-12T13:07:25;7.57;;;4.27;;
10847;SDS011;5477;48.806;9.154;2023-08-12T13:09:53;5.30;;;3.93;;
10847;SDS011;5477;48.806;9.154;2023-08-12T13:12:21;4.63;;;3.77;;
10847;SDS011;5477;48.806;9.154;2023-08-12T13:14:49;7.17;;;4.50;;
10847;SDS011;5477;48.806;9.154;2023-08-12T13:17:17;7.27;;;4.40;;
10847;SDS011;5477;48.806;9.154;2023-08-12T13:19:45;10.00;;;4.53;;
10847;SDS011;5477;48.806;9.154;2023-08-12T13:22:13;5.30;;;4.27;;
10847;SDS011;5477;48.806;9.154;2023-08-12T13:24:42;4.93;;;4.40;;
10847;SDS011;5477;48.806;9.154;2023-08-12T13:27:11;7.07;;;5.10;;
10847;SDS011;5477;48.806;9.154;2023-08-12T13:29:39;5.50;;;4.97;;
10847;SDS011;5477;48.806;9.154;2023-08-12T13:32:07;6.90;;;5.37;;
10847;SDS011;5477;48.806;9.154;2023-08-12T13:34:35;6.63;;;5.03;;
10847;SDS011;5477;48.806;9.154;2023-08-12T13:37:03;6.23;;;4.90;;
10847;SDS011;5477;48.806;9.154;2023-08-12T13:39:32;6.53;;;4.97;;
10847;SDS011;5477;48.806;9.154;2023-08-12T13:42:01;5.20;;;4.70;;
10847;SDS011;5477;48.806;9.154;2023-08-12T13:44:29;7.67;;;5.17;;
10847;SDS011;5477;48.806;9.154;2023-08-12T13:46:57;6.13;;;4.67;;
10847;SDS011;5477;48.806;9.154;2023-08-12T13:49:25;5.78;;;5.18;;
10847;SDS011;5477;48.806;9.154;2023-08-12T13:51:53;6.45;;;4.47;;
10847;SDS011;5477;48.806;9.154;2023-08-12T13:54:21;7.13;;;4.25;;
10847;SDS011;5477;48.806;9.154;2023-08-12T13:56:49;4.55;;;3.95;;
10847;SDS011;5477;48.806;9.154;2023-08-12T13:59:19;4.75;;;3.92;;
10847;SDS011;5477;48.806;9.154;2023-08-12T14:01:47;4.28;;;3.80;;
10847;SDS011;5477;48.806;9.154;2023-08-12T14:04:15;4.40;;;3.78;;
10847;SDS011;5477;48.806;9.154;2023-08-12T14:06:43;6.20;;;3.95;;
10847;SDS011;5477;48.806;9.154;2023-08-12T14:09:11;5.25;;;3.67;;
10847;SDS011;5477;48.806;9.154;2023-08-12T14:11:40;5.47;;;4.13;;
10847;SDS011;5477;48.806;9.154;2023-08-12T14:14:08;5.10;;;4.28;;
10847;SDS011;5477;48.806;9.154;2023-08-12T14:16:37;4.38;;;3.50;;
10847;SDS011;5477;48.806;9.154;2023-08-12T14:19:05;4.05;;;3.65;;
10847;SDS011;5477;48.806;9.154;2023-08-12T14:21:33;4.30;;;3.90;;
10847;SDS011;5477;48.806;9.154;2023-08-12T14:24:01;5.90;;;3.67;;
10847;SDS011;5477;48.806;9.154;2023-08-12T14:26:30;4.72;;;3.40;;
10847;SDS011;5477;48.806;9.154;2023-08-12T14:28:58;3.60;;;3.08;;
10847;SDS011;5477;48.806;9.154;2023-08-12T14:31:26;4.65;;;3.58;;
10847;SDS011;5477;48.806;9.154;2023-08-12T14:33:55;4.45;;;3.17;;
10847;SDS011;5477;48.806;9.154;2023-08-12T14:36:23;5.45;;;3.67;;
10847;SDS011;5477;48.806;9.154;2023-08-12T14:38:51;4.43;;;3.05;;
10847;SDS011;5477;48.806;9.154;2023-08-12T14:41:19;3.28;;;2.90;;
10847;SDS011;5477;48.806;9.154;2023-08-12T14:43:48;3.83;;;3.42;;
10847;SDS011;5477;48.806;9.154;2023-08-12T14:46:16;4.18;;;2.65;;
10847;SDS011;5477;48.806;9.154;2023-08-12T14:48:44;3.30;;;2.80;;
10847;SDS011;5477;48.806;9.154;2023-08-12T14:51:13;3.63;;;2.80;;
10847;SDS011;5477;48.806;9.154;2023-08-12T14:53:41;2.70;;;2.50;;
10847;SDS011;5477;48.806;9.154;2023-08-12T14:56:09;4.65;;;2.92;;
10847;SDS011;5477;48.806;9.154;2023-08-12T14:58:37;4.20;;;2.70;;
10847;SDS011;5477;48.806;9.154;2023-08-12T15:01:05;3.97;;;2.50;;
10847;SDS011;5477;48.806;9.154;2023-08-12T15:03:33;4.70;;;3.05;;
10847;SDS011;5477;48.806;9.154;2023-08-12T15:06:02;3.05;;;2.45;;
10847;SDS011;5477;48.806;9.154;2023-08-12T15:08:33;3.92;;;2.58;;
10847;SDS011;5477;48.806;9.154;2023-08-12T15:11:01;2.78;;;2.00;;
10847;SDS011;5477;48.806;9.154;2023-08-12T15:13:29;3.50;;;2.53;;
10847;SDS011;5477;48.806;9.154;2023-08-12T15:15:57;3.22;;;2.35;;